createdAt,value
2018-09-05T00:02:14.226Z,13.93
2018-09-05T00:05:11.922Z,14.70
2018-09-05T00:08:09.726Z,15.60
2018-09-05T00:11:07.406Z,12.80
2018-09-05T00:14:05.521Z,14.03
2018-09-05T00:17:03.495Z,14.13
2018-09-05T00:20:01.160Z,14.83
2018-09-05T00:22:59.023Z,15.17
2018-09-05T00:25:56.786Z,13.47
2018-09-05T00:28:54.924Z,14.57
2018-09-05T00:31:52.542Z,14.50
2018-09-05T00:34:50.352Z,15.67
2018-09-05T00:37:48.278Z,15.50
2018-09-05T00:40:46.100Z,14.80
2018-09-05T00:43:43.623Z,14.23
2018-09-05T00:46:41.311Z,15.43
2018-09-05T00:49:40.905Z,15.20
2018-09-05T00:52:39.714Z,15.97
2018-09-05T00:55:37.524Z,15.53
2018-09-05T00:58:35.159Z,15.83
2018-09-05T01:01:32.916Z,15.40
2018-09-05T01:04:30.538Z,13.97
2018-09-05T01:07:36.332Z,14.47
2018-09-05T01:10:34.247Z,14.53
2018-09-05T01:13:31.857Z,15.63
2018-09-05T01:16:29.665Z,14.27
2018-09-05T01:19:27.451Z,15.17
2018-09-05T01:22:25.500Z,14.43
2018-09-05T01:25:23.555Z,15.23
2018-09-05T01:28:21.260Z,14.63
2018-09-05T01:31:18.963Z,14.60
2018-09-05T01:34:16.772Z,15.00
2018-09-05T01:37:15.330Z,16.47
2018-09-05T01:40:13.358Z,15.17
2018-09-05T01:43:11.056Z,14.57
2018-09-05T01:46:09.345Z,14.87
2018-09-05T01:49:06.563Z,14.60
2018-09-05T01:52:05.507Z,14.57
2018-09-05T01:55:03.217Z,13.93
2018-09-05T01:58:01.117Z,13.27
2018-09-05T02:00:58.970Z,13.83
2018-09-05T02:03:56.715Z,14.37
2018-09-05T02:06:54.371Z,13.57
2018-09-05T02:09:52.318Z,14.17
2018-09-05T02:12:50.009Z,13.13
2018-09-05T02:15:47.892Z,13.17
2018-09-05T02:18:45.920Z,14.77
2018-09-05T02:21:43.784Z,12.97
2018-09-05T02:24:41.716Z,12.77
2018-09-05T02:27:39.818Z,13.60
2018-09-05T02:30:38.545Z,13.90
2018-09-05T02:33:36.661Z,13.97
2018-09-05T02:36:34.523Z,12.90
2018-09-05T02:39:32.509Z,13.47
2018-09-05T02:42:30.198Z,14.20
2018-09-05T02:48:41.527Z,14.07
2018-09-05T02:51:39.372Z,12.23
2018-09-05T02:54:37.146Z,12.80
2018-09-05T02:57:34.756Z,13.10
2018-09-05T03:00:35.559Z,12.80
2018-09-05T03:03:33.456Z,11.80
2018-09-05T03:06:31.203Z,11.83
2018-09-05T03:09:29.210Z,12.20
2018-09-05T03:12:27.882Z,12.53
2018-09-05T03:15:25.480Z,12.80
2018-09-05T03:18:23.419Z,12.13
2018-09-05T03:21:21.317Z,13.73
2018-09-05T03:24:19.000Z,11.93
2018-09-05T03:27:16.732Z,12.70
2018-09-05T03:30:14.582Z,13.03
2018-09-05T03:33:12.270Z,11.67
2018-09-05T03:36:10.205Z,11.87
2018-09-05T03:39:07.697Z,12.73
2018-09-05T03:42:06.076Z,13.27
2018-09-05T03:45:03.453Z,12.73
2018-09-05T03:48:01.216Z,13.17
2018-09-05T03:51:02.887Z,14.20
2018-09-05T03:54:00.527Z,13.57
2018-09-05T03:56:58.271Z,13.77
2018-09-05T03:59:55.869Z,14.30
2018-09-05T04:06:05.812Z,14.27
2018-09-05T04:09:03.749Z,14.90
2018-09-05T04:12:01.622Z,14.70
2018-09-05T04:14:58.990Z,20.67
2018-09-05T04:17:56.836Z,15.97
2018-09-05T04:20:54.460Z,16.10
2018-09-05T04:23:53.263Z,16.00
2018-09-05T04:26:50.962Z,16.43
2018-09-05T04:29:49.018Z,17.17
2018-09-05T04:32:46.545Z,18.37
2018-09-05T04:35:44.358Z,18.00
2018-09-05T04:38:42.200Z,17.03
2018-09-05T04:41:40.243Z,16.80
2018-09-05T04:44:38.049Z,15.53
2018-09-05T04:47:35.763Z,17.83
2018-09-05T04:50:34.209Z,15.63
2018-09-05T04:53:32.887Z,15.53
2018-09-05T04:56:30.615Z,15.20
2018-09-05T04:59:28.391Z,14.80
2018-09-05T05:02:26.210Z,14.57
2018-09-05T05:05:23.908Z,13.70
2018-09-05T05:08:22.720Z,11.67
2018-09-05T05:11:20.332Z,13.17
2018-09-05T05:14:19.123Z,12.33
2018-09-05T05:17:17.661Z,12.50
2018-09-05T05:20:15.358Z,12.93
2018-09-05T05:23:13.140Z,11.33
2018-09-05T05:26:10.979Z,12.37
2018-09-05T05:29:08.458Z,11.67
2018-09-05T05:32:06.442Z,10.73
2018-09-05T05:35:04.265Z,10.37
2018-09-05T05:38:01.992Z,10.80
2018-09-05T05:40:59.953Z,10.37
2018-09-05T05:43:58.826Z,12.00
2018-09-05T05:46:56.615Z,12.33
2018-09-05T05:49:54.399Z,10.57
2018-09-05T05:52:52.226Z,10.50
2018-09-05T05:55:50.773Z,12.20
2018-09-05T05:58:48.399Z,12.00
2018-09-05T06:01:47.099Z,10.67
2018-09-05T06:04:45.054Z,9.57
2018-09-05T06:07:43.809Z,11.87
2018-09-05T06:10:41.616Z,9.73
2018-09-05T06:13:40.411Z,10.37
2018-09-05T06:16:38.307Z,10.43
2018-09-05T06:19:36.191Z,9.97
2018-09-05T06:22:33.816Z,11.10
2018-09-05T06:25:31.478Z,10.20
2018-09-05T06:28:29.302Z,9.83
2018-09-05T06:31:27.050Z,10.10
2018-09-05T06:34:26.088Z,14.03
2018-09-05T06:37:23.655Z,9.67
2018-09-05T06:40:21.273Z,9.40
2018-09-05T06:43:19.178Z,9.33
2018-09-05T06:46:16.804Z,9.13
2018-09-05T06:49:14.368Z,8.73
2018-09-05T06:52:11.947Z,9.90
2018-09-05T06:55:09.738Z,9.93
2018-09-05T06:58:08.745Z,9.50
2018-09-05T07:01:06.746Z,9.30
2018-09-05T07:04:04.470Z,9.27
2018-09-05T07:07:02.340Z,9.20
2018-09-05T07:10:00.057Z,8.70
2018-09-05T07:12:57.855Z,8.33
2018-09-05T07:15:55.430Z,7.83
2018-09-05T07:18:53.120Z,8.20
2018-09-05T07:21:50.973Z,7.60
2018-09-05T07:24:48.839Z,8.20
2018-09-05T07:27:46.749Z,6.83
2018-09-05T07:30:44.476Z,7.17
2018-09-05T07:33:42.098Z,6.97
2018-09-05T07:36:39.853Z,6.57
2018-09-05T07:39:38.485Z,5.93
2018-09-05T07:42:36.313Z,6.63
2018-09-05T07:45:34.091Z,5.70
2018-09-05T07:48:31.803Z,5.40
2018-09-05T07:51:30.461Z,6.07
2018-09-05T07:54:28.263Z,6.30
2018-09-05T07:57:26.148Z,5.87
2018-09-05T08:00:23.834Z,4.50
2018-09-05T08:03:21.398Z,5.27
2018-09-05T08:06:20.345Z,13.23
2018-09-05T08:09:19.095Z,6.73
2018-09-05T08:12:18.054Z,4.47
2018-09-05T08:15:15.874Z,4.67
2018-09-05T08:18:13.768Z,4.67
2018-09-05T08:21:11.757Z,4.65
2018-09-05T08:24:09.674Z,4.92
2018-09-05T08:27:07.524Z,5.37
2018-09-05T08:31:08.402Z,5.12
2018-09-05T08:34:06.396Z,5.22
2018-09-05T08:37:04.287Z,5.53
2018-09-05T08:40:03.031Z,4.65
2018-09-05T08:43:00.896Z,4.60
2018-09-05T08:45:59.606Z,3.80
2018-09-05T08:48:57.428Z,4.17
2018-09-05T08:51:54.534Z,3.50
2018-09-05T08:54:52.518Z,4.47
2018-09-05T08:57:50.201Z,3.95
2018-09-05T09:00:48.002Z,4.55
2018-09-05T09:03:45.825Z,4.17
2018-09-05T09:06:43.760Z,4.45
2018-09-05T09:09:41.696Z,4.92
2018-09-05T09:12:39.754Z,4.22
2018-09-05T09:15:37.557Z,3.92
2018-09-05T09:18:35.310Z,3.95
2018-09-05T09:21:32.946Z,4.58
2018-09-05T09:24:30.904Z,4.33
2018-09-05T09:27:28.504Z,4.30
2018-09-05T09:30:26.279Z,6.05
2018-09-05T09:33:24.109Z,5.33
2018-09-05T09:39:37.899Z,4.60
2018-09-05T09:42:35.695Z,4.20
2018-09-05T09:45:33.284Z,4.28
2018-09-05T09:48:30.854Z,4.37
2018-09-05T09:51:29.658Z,4.45
2018-09-05T09:54:27.167Z,4.62
2018-09-05T09:57:24.755Z,4.87
2018-09-05T10:00:27.503Z,3.95
2018-09-05T10:03:31.491Z,4.22
2018-09-05T10:06:33.061Z,5.10
2018-09-05T10:09:37.993Z,7.15
2018-09-05T10:12:41.437Z,4.50
2018-09-05T10:15:45.647Z,5.03
2018-09-05T10:18:47.633Z,5.17
2018-09-05T10:21:45.265Z,4.92
2018-09-05T10:24:43.034Z,4.67
2018-09-05T10:27:40.453Z,4.40
2018-09-05T10:30:38.115Z,4.97
2018-09-05T10:33:35.690Z,5.03
2018-09-05T10:36:33.386Z,4.23
2018-09-05T10:39:31.123Z,4.03
2018-09-05T10:42:28.694Z,4.43
2018-09-05T10:45:26.609Z,4.17
2018-09-05T10:48:25.167Z,3.67
2018-09-05T10:51:22.847Z,3.97
2018-09-05T10:54:20.516Z,3.43
2018-09-05T10:57:18.240Z,3.83
2018-09-05T11:00:15.955Z,3.97
2018-09-05T11:03:13.747Z,4.77
2018-09-05T11:06:12.050Z,3.93
2018-09-05T11:09:09.503Z,4.13
2018-09-05T11:12:07.021Z,4.53
2018-09-05T11:15:04.475Z,4.70
2018-09-05T11:18:02.153Z,4.40
2018-09-05T11:20:59.829Z,3.70
2018-09-05T11:23:58.408Z,4.90
2018-09-05T11:26:55.978Z,4.20
2018-09-05T11:29:53.656Z,4.00
2018-09-05T11:32:51.107Z,4.20
2018-09-05T11:35:48.753Z,3.90
2018-09-05T11:38:46.475Z,4.37
2018-09-05T11:41:44.190Z,3.73
2018-09-05T11:44:41.996Z,4.20
2018-09-05T11:47:39.515Z,4.40
2018-09-05T11:50:37.124Z,4.77
2018-09-05T11:53:34.790Z,4.03
2018-09-05T11:56:32.386Z,4.60
2018-09-05T11:59:30.017Z,4.07
2018-09-05T12:02:27.848Z,4.27
2018-09-05T12:05:27.320Z,3.53
2018-09-05T12:08:25.090Z,4.07
2018-09-05T12:11:22.704Z,4.10
2018-09-05T12:14:20.407Z,4.47
2018-09-05T12:17:18.138Z,4.17
2018-09-05T12:20:15.740Z,4.93
2018-09-05T12:23:14.292Z,3.43
2018-09-05T12:26:12.215Z,4.37
2018-09-05T12:29:12.884Z,3.67
2018-09-05T12:32:10.373Z,5.60
2018-09-05T12:35:08.227Z,3.50
2018-09-05T12:38:05.714Z,3.57
2018-09-05T12:41:03.222Z,4.10
2018-09-05T12:44:00.817Z,3.97
2018-09-05T12:46:59.202Z,4.20
2018-09-05T12:49:57.073Z,4.20
2018-09-05T12:52:54.908Z,4.03
2018-09-05T12:55:53.455Z,3.70
2018-09-05T12:58:51.091Z,4.10
2018-09-05T13:01:49.787Z,4.23
2018-09-05T13:04:47.256Z,3.83
2018-09-05T13:07:45.205Z,4.63
2018-09-05T13:10:42.768Z,4.00
2018-09-05T13:13:40.485Z,4.43
2018-09-05T13:16:37.831Z,3.60
2018-09-05T13:19:35.571Z,4.53
2018-09-05T13:22:33.338Z,3.73
2018-09-05T13:25:30.982Z,4.40
2018-09-05T13:28:28.615Z,4.60
2018-09-05T13:31:26.063Z,4.30
2018-09-05T13:34:23.782Z,4.17
2018-09-05T13:37:22.396Z,4.80
2018-09-05T13:40:19.934Z,3.87
2018-09-05T13:43:17.580Z,4.40
2018-09-05T13:46:15.196Z,3.97
2018-09-05T13:49:12.716Z,3.83
2018-09-05T13:52:11.376Z,3.43
2018-09-05T13:55:08.875Z,4.47
2018-09-05T13:58:06.278Z,3.97
2018-09-05T14:01:03.841Z,3.40
2018-09-05T14:04:01.559Z,3.67
2018-09-05T14:06:59.188Z,3.63
2018-09-05T14:09:56.784Z,3.80
2018-09-05T14:12:55.435Z,3.77
2018-09-05T14:15:52.956Z,3.60
2018-09-05T14:18:50.625Z,25.00
2018-09-05T14:21:48.224Z,3.67
2018-09-05T14:24:46.158Z,3.70
2018-09-05T14:27:44.362Z,4.43
2018-09-05T14:30:42.097Z,6.47
2018-09-05T14:33:54.595Z,4.03
2018-09-05T14:36:52.209Z,4.73
2018-09-05T14:39:49.978Z,3.53
2018-09-05T14:42:48.640Z,3.90
2018-09-05T14:45:48.178Z,4.07
2018-09-05T14:48:46.052Z,3.83
2018-09-05T14:51:43.930Z,3.40
2018-09-05T14:54:42.729Z,3.60
2018-09-05T14:57:40.404Z,3.73
2018-09-05T15:00:38.143Z,3.73
2018-09-05T15:03:36.881Z,4.20
2018-09-05T15:06:34.879Z,3.50
2018-09-05T15:09:32.374Z,3.50
2018-09-05T15:12:30.554Z,3.50
2018-09-05T15:15:27.840Z,3.70
2018-09-05T15:18:26.480Z,4.20
2018-09-05T15:21:24.284Z,3.80
2018-09-05T15:24:21.930Z,3.77
2018-09-05T15:27:19.679Z,3.70
2018-09-05T15:30:17.349Z,4.67
2018-09-05T15:33:15.956Z,3.57
2018-09-05T15:36:13.700Z,4.70
2018-09-05T15:39:11.502Z,3.23
2018-09-05T15:42:09.345Z,3.50
2018-09-05T15:45:07.261Z,3.50
2018-09-05T15:48:04.981Z,4.87
2018-09-05T15:51:02.647Z,3.77
2018-09-05T15:54:00.283Z,3.50
2018-09-05T15:56:57.746Z,3.67
2018-09-05T15:59:55.222Z,3.53
2018-09-05T16:02:52.789Z,3.63
2018-09-05T16:05:50.401Z,4.50
2018-09-05T16:08:48.186Z,8.17
2018-09-05T16:11:47.815Z,4.33
2018-09-05T16:14:45.485Z,4.40
2018-09-05T16:17:43.218Z,3.90
2018-09-05T16:20:41.736Z,4.10
2018-09-05T16:23:39.315Z,4.90
2018-09-05T16:26:37.025Z,4.30
2018-09-05T16:29:34.713Z,3.60
2018-09-05T16:32:33.367Z,4.93
2018-09-05T16:35:31.096Z,4.00
2018-09-05T16:38:28.697Z,4.27
2018-09-05T16:41:26.422Z,4.00
2018-09-05T16:44:24.162Z,3.63
2018-09-05T16:47:22.035Z,4.27
2018-09-05T16:50:19.656Z,4.67
2018-09-05T16:53:17.325Z,4.40
2018-09-05T16:56:15.041Z,4.17
2018-09-05T16:59:12.629Z,4.10
2018-09-05T17:02:10.303Z,3.87
2018-09-05T17:05:08.116Z,4.20
2018-09-05T17:08:05.709Z,4.10
2018-09-05T17:11:03.487Z,4.40
2018-09-05T17:14:01.017Z,4.00
2018-09-05T17:16:58.694Z,3.93
2018-09-05T17:19:56.226Z,4.73
2018-09-05T17:22:53.885Z,5.77
2018-09-05T17:25:51.642Z,4.00
2018-09-05T17:28:49.202Z,3.97
2018-09-05T17:31:46.853Z,3.80
2018-09-05T17:34:49.821Z,5.20
2018-09-05T17:37:49.453Z,4.43
2018-09-05T17:40:47.046Z,5.43
2018-09-05T17:43:44.561Z,4.30
2018-09-05T17:46:42.232Z,4.10
2018-09-05T17:49:39.774Z,4.07
2018-09-05T17:52:37.391Z,4.10
2018-09-05T17:55:35.087Z,3.60
2018-09-05T17:58:32.763Z,5.67
2018-09-05T18:01:31.564Z,3.90
2018-09-05T18:04:29.196Z,4.50
2018-09-05T18:07:27.159Z,3.67
2018-09-05T18:10:24.831Z,4.03
2018-09-05T18:13:22.489Z,3.87
2018-09-05T18:16:21.422Z,4.07
2018-09-05T18:19:19.092Z,4.07
2018-09-05T18:22:16.707Z,4.00
2018-09-05T18:25:14.204Z,4.27
2018-09-05T18:28:11.698Z,4.20
2018-09-05T18:31:09.696Z,4.97
2018-09-05T18:34:07.434Z,4.20
2018-09-05T18:37:05.116Z,3.97
2018-09-05T18:40:02.819Z,4.13
2018-09-05T18:43:00.569Z,3.93
2018-09-05T18:45:58.263Z,3.90
2018-09-05T18:48:55.866Z,4.97
2018-09-05T18:51:53.524Z,3.70
2018-09-05T18:54:52.433Z,4.53
2018-09-05T18:57:50.150Z,8.93
2018-09-05T19:00:47.777Z,5.00
2018-09-05T19:03:45.245Z,4.30
2018-09-05T19:06:42.871Z,3.97
2018-09-05T19:09:41.694Z,3.87
2018-09-05T19:12:39.415Z,4.17
2018-09-05T19:15:37.088Z,4.60
2018-09-05T19:18:34.879Z,4.47
2018-09-05T19:21:32.370Z,4.37
2018-09-05T19:24:30.127Z,4.50
2018-09-05T19:27:29.563Z,4.30
2018-09-05T19:30:28.194Z,4.87
2018-09-05T19:33:25.963Z,4.93
2018-09-05T19:36:23.567Z,4.10
2018-09-05T19:39:23.092Z,3.73
2018-09-05T19:42:21.374Z,4.03
2018-09-05T19:45:19.443Z,3.97
2018-09-05T19:48:17.519Z,4.00
2018-09-05T19:51:15.238Z,9.00
2018-09-05T19:54:13.056Z,4.10
2018-09-05T19:57:10.644Z,4.53
2018-09-05T20:00:08.482Z,4.17
2018-09-05T20:03:06.176Z,4.63
2018-09-05T20:06:03.802Z,4.80
2018-09-05T20:09:02.450Z,4.47
2018-09-05T20:12:00.172Z,4.70
2018-09-05T20:14:57.939Z,3.83
2018-09-05T20:17:55.666Z,4.33
2018-09-05T20:20:53.286Z,4.40
2018-09-05T20:23:51.022Z,3.83
2018-09-05T20:26:48.743Z,5.37
2018-09-05T20:29:46.550Z,4.53
2018-09-05T20:32:44.966Z,4.80
2018-09-05T20:35:42.576Z,5.17
2018-09-05T20:38:40.310Z,5.47
2018-09-05T20:41:37.762Z,6.17
2018-09-05T20:44:35.505Z,6.47
2018-09-05T20:47:33.319Z,5.50
2018-09-05T20:50:33.011Z,4.47
2018-09-05T20:53:30.642Z,4.93
2018-09-05T20:56:29.551Z,4.93
2018-09-05T20:59:27.399Z,4.73
2018-09-05T21:02:25.033Z,4.50
2018-09-05T21:05:22.783Z,4.73
2018-09-05T21:08:20.717Z,4.87
2018-09-05T21:11:18.384Z,5.23
2018-09-05T21:14:16.280Z,4.93
2018-09-05T21:17:14.023Z,5.00
2018-09-05T21:20:13.059Z,5.50
2018-09-05T21:23:10.624Z,4.57
2018-09-05T21:26:08.564Z,5.43
2018-09-05T21:29:06.381Z,5.27
2018-09-05T21:32:04.898Z,4.70
2018-09-05T21:35:02.649Z,5.60
2018-09-05T21:38:00.269Z,5.73
2018-09-05T21:40:58.013Z,5.47
2018-09-05T21:43:55.745Z,5.50
2018-09-05T21:46:53.935Z,5.67
2018-09-05T21:49:51.924Z,5.30
2018-09-05T21:52:49.711Z,5.50
2018-09-05T21:55:47.347Z,6.23
2018-09-05T21:58:44.893Z,5.40
2018-09-05T22:01:42.727Z,6.47
2018-09-05T22:04:41.470Z,5.23
2018-09-05T22:07:38.907Z,5.77
2018-09-05T22:10:36.730Z,5.87
2018-09-05T22:13:38.559Z,6.20
2018-09-05T22:16:37.248Z,5.77
2018-09-05T22:19:34.921Z,6.67
2018-09-05T22:22:32.546Z,5.90
2018-09-05T22:25:30.256Z,6.47
2018-09-05T22:28:27.986Z,6.47
2018-09-05T22:31:25.560Z,7.07
2018-09-05T22:34:23.221Z,6.17
2018-09-05T22:37:20.860Z,5.87
2018-09-05T22:40:18.544Z,6.03
2018-09-05T22:43:28.066Z,6.43
2018-09-05T22:46:37.670Z,7.23
2018-09-05T22:53:58.200Z,6.17
2018-09-05T22:59:28.423Z,5.83
2018-09-05T23:02:46.260Z,6.70
2018-09-05T23:08:02.436Z,6.27
2018-09-05T23:11:11.946Z,5.63
2018-09-05T23:14:25.585Z,6.10
2018-09-05T23:19:35.522Z,6.07
2018-09-05T23:22:33.290Z,5.73
2018-09-05T23:25:30.953Z,6.10
2018-09-05T23:28:28.751Z,5.40
2018-09-05T23:31:26.581Z,5.53
2018-09-05T23:34:24.207Z,5.63
2018-09-05T23:37:21.874Z,5.70
2018-09-05T23:40:19.506Z,4.93
2018-09-05T23:43:17.399Z,6.07
2018-09-05T23:46:14.912Z,6.40
2018-09-05T23:49:12.713Z,5.63
2018-09-05T23:52:10.461Z,5.80
2018-09-05T23:55:08.213Z,5.87
2018-09-05T23:58:05.946Z,6.27
